sensor_id;sensor_type;location;lat;lon;timestamp;pressure;altitude;pressure_sealevel;temperature;humidity
53270;BME280;39159;45.634;9.420;2023-02-25T00:01:50;97847.66;;;8.74;100.00
53270;BME280;39159;45.634;9.420;2023-02-25T00:04:15;97842.69;;;8.76;100.00
53270;BME280;39159;45.634;9.420;2023-02-25T00:06:40;97843.81;;;8.75;100.00
53270;BME280;39159;45.634;9.420;2023-02-25T00:09:06;97836.63;;;8.70;100.00
53270;BME280;39159;45.634;9.420;2023-02-25T00:11:35;97830.38;;;8.61;100.00
53270;BME280;39159;45.634;9.420;2023-02-25T00:14:00;97832.16;;;8.57;100.00
53270;BME280;39159;45.634;9.420;2023-02-25T00:16:27;97827.38;;;8.54;100.00
53270;BME280;39159;45.634;9.420;2023-02-25T00:18:56;97816.31;;;8.50;100.00
53270;BME280;39159;45.634;9.420;2023-02-25T00:21:23;97816.31;;;8.50;100.00
53270;BME280;39159;45.634;9.420;2023-02-25T00:23:49;97803.22;;;8.53;100.00
53270;BME280;39159;45.634;9.420;2023-02-25T00:26:16;97804.47;;;8.55;100.00
53270;BME280;39159;45.634;9.420;2023-02-25T00:28:42;97793.59;;;8.55;100.00
53270;BME280;39159;45.634;9.420;2023-02-25T00:31:09;97797.75;;;8.61;100.00
53270;BME280;39159;45.634;9.420;2023-02-25T00:33:36;97805.13;;;8.61;100.00
53270;BME280;39159;45.634;9.420;2023-02-25T00:36:10;97809.13;;;8.55;100.00
53270;BME280;39159;45.634;9.420;2023-02-25T00:38:35;97801.63;;;8.43;100.00
53270;BME280;39159;45.634;9.420;2023-02-25T00:41:09;97798.25;;;8.37;100.00
53270;BME280;39159;45.634;9.420;2023-02-25T00:43:37;97799.50;;;8.40;100.00
53270;BME280;39159;45.634;9.420;2023-02-25T00:46:03;97793.28;;;8.39;100.00
53270;BME280;39159;45.634;9.420;2023-02-25T00:48:29;97797.00;;;8.43;100.00
53270;BME280;39159;45.634;9.420;2023-02-25T00:50:54;97791.06;;;8.50;100.00
53270;BME280;39159;45.634;9.420;2023-02-25T00:53:20;97789.13;;;8.50;100.00
53270;BME280;39159;45.634;9.420;2023-02-25T00:55:45;97783.09;;;8.45;100.00
53270;BME280;39159;45.634;9.420;2023-02-25T00:58:10;97774.94;;;8.45;100.00
53270;BME280;39159;45.634;9.420;2023-02-25T01:00:36;97771.72;;;8.43;100.00
53270;BME280;39159;45.634;9.420;2023-02-25T01:03:01;97772.84;;;8.42;100.00
53270;BME280;39159;45.634;9.420;2023-02-25T01:05:27;97768.03;;;8.47;100.00
53270;BME280;39159;45.634;9.420;2023-02-25T01:07:52;97762.59;;;8.47;100.00
53270;BME280;39159;45.634;9.420;2023-02-25T01:10:18;97759.72;;;8.44;100.00
53270;BME280;39159;45.634;9.420;2023-02-25T01:12:43;97751.88;;;8.42;100.00
53270;BME280;39159;45.634;9.420;2023-02-25T01:15:09;97753.63;;;8.47;100.00
53270;BME280;39159;45.634;9.420;2023-02-25T01:17:34;97752.69;;;8.52;100.00
53270;BME280;39159;45.634;9.420;2023-02-25T01:20:00;97746.75;;;8.58;100.00
53270;BME280;39159;45.634;9.420;2023-02-25T01:22:25;97745.94;;;8.58;100.00
53270;BME280;39159;45.634;9.420;2023-02-25T01:24:53;97748.19;;;8.47;100.00
53270;BME280;39159;45.634;9.420;2023-02-25T01:27:19;97746.28;;;8.39;100.00
53270;BME280;39159;45.634;9.420;2023-02-25T01:29:44;97739.09;;;8.34;100.00
53270;BME280;39159;45.634;9.420;2023-02-25T01:32:12;97733.66;;;8.34;100.00
53270;BME280;39159;45.634;9.420;2023-02-25T01:34:38;97731.91;;;8.29;100.00
53270;BME280;39159;45.634;9.420;2023-02-25T01:37:04;97727.09;;;8.26;100.00
53270;BME280;39159;45.634;9.420;2023-02-25T01:39:30;97720.06;;;8.25;100.00
53270;BME280;39159;45.634;9.420;2023-02-25T01:41:58;97712.25;;;8.24;100.00
53270;BME280;39159;45.634;9.420;2023-02-25T01:44:35;97705.38;;;8.18;100.00
53270;BME280;39159;45.634;9.420;2023-02-25T01:47:03;97699.31;;;8.12;100.00
53270;BME280;39159;45.634;9.420;2023-02-25T01:49:44;97691.78;;;8.09;100.00
53270;BME280;39159;45.634;9.420;2023-02-25T01:52:17;97696.59;;;8.03;100.00
53270;BME280;39159;45.634;9.420;2023-02-25T01:54:46;97696.44;;;8.00;100.00
53270;BME280;39159;45.634;9.420;2023-02-25T01:57:14;97686.84;;;8.02;100.00
53270;BME280;39159;45.634;9.420;2023-02-25T01:59:42;97680.94;;;8.00;100.00
53270;BME280;39159;45.634;9.420;2023-02-25T02:02:12;97674.41;;;7.93;100.00
53270;BME280;39159;45.634;9.420;2023-02-25T02:04:40;97673.28;;;7.94;100.00
53270;BME280;39159;45.634;9.420;2023-02-25T02:07:06;97668.00;;;7.88;100.00
53270;BME280;39159;45.634;9.420;2023-02-25T02:09:32;97676.81;;;7.85;100.00
53270;BME280;39159;45.634;9.420;2023-02-25T02:12:00;97668.50;;;7.82;100.00
53270;BME280;39159;45.634;9.420;2023-02-25T02:14:40;97661.31;;;7.77;100.00
53270;BME280;39159;45.634;9.420;2023-02-25T02:22:14;97654.78;;;7.78;100.00
53270;BME280;39159;45.634;9.420;2023-02-25T02:33:07;97648.88;;;7.76;100.00
53270;BME280;39159;45.634;9.420;2023-02-25T02:38:34;97650.13;;;7.87;100.00
53270;BME280;39159;45.634;9.420;2023-02-25T02:44:11;97639.09;;;7.84;100.00
53270;BME280;39159;45.634;9.420;2023-02-25T02:46:42;97626.78;;;7.86;100.00
53270;BME280;39159;45.634;9.420;2023-02-25T02:54:10;97616.09;;;7.90;100.00
53270;BME280;39159;45.634;9.420;2023-02-25T02:56:39;97630.16;;;7.92;100.00
53270;BME280;39159;45.634;9.420;2023-02-25T02:59:10;97624.84;;;7.96;100.00
53270;BME280;39159;45.634;9.420;2023-02-25T03:01:41;97623.75;;;7.97;100.00
53270;BME280;39159;45.634;9.420;2023-02-25T03:04:13;97623.09;;;8.00;100.00
53270;BME280;39159;45.634;9.420;2023-02-25T03:06:47;97618.94;;;8.02;100.00
53270;BME280;39159;45.634;9.420;2023-02-25T03:09:20;97620.38;;;8.00;100.00
53270;BME280;39159;45.634;9.420;2023-02-25T03:11:47;97618.31;;;7.97;100.00
53270;BME280;39159;45.634;9.420;2023-02-25T03:14:13;97614.31;;;7.94;100.00
53270;BME280;39159;45.634;9.420;2023-02-25T03:16:43;97606.66;;;7.96;100.00
53270;BME280;39159;45.634;9.420;2023-02-25T03:19:17;97618.00;;;7.98;100.00
53270;BME280;39159;45.634;9.420;2023-02-25T03:21:49;97610.63;;;7.99;100.00
53270;BME280;39159;45.634;9.420;2023-02-25T03:24:22;97604.88;;;8.00;100.00
53270;BME280;39159;45.634;9.420;2023-02-25T03:26:51;97607.59;;;8.00;100.00
53270;BME280;39159;45.634;9.420;2023-02-25T03:29:22;97595.28;;;8.03;100.00
53270;BME280;39159;45.634;9.420;2023-02-25T03:31:54;97596.59;;;7.97;100.00
53270;BME280;39159;45.634;9.420;2023-02-25T03:34:33;97586.69;;;7.92;100.00
53270;BME280;39159;45.634;9.420;2023-02-25T03:37:03;97591.00;;;7.93;100.00
53270;BME280;39159;45.634;9.420;2023-02-25T03:39:34;97591.47;;;7.95;100.00
53270;BME280;39159;45.634;9.420;2023-02-25T03:42:02;97599.31;;;7.97;100.00
53270;BME280;39159;45.634;9.420;2023-02-25T03:44:36;97599.91;;;8.02;100.00
53270;BME280;39159;45.634;9.420;2023-02-25T03:47:04;97593.06;;;8.05;100.00
53270;BME280;39159;45.634;9.420;2023-02-25T03:49:40;97602.31;;;8.04;100.00
53270;BME280;39159;45.634;9.420;2023-02-25T03:52:12;97591.13;;;8.05;100.00
53270;BME280;39159;45.634;9.420;2023-02-25T03:54:38;97586.16;;;8.07;100.00
53270;BME280;39159;45.634;9.420;2023-02-25T03:57:04;97589.69;;;7.99;100.00
53270;BME280;39159;45.634;9.420;2023-02-25T03:59:30;97578.84;;;7.91;100.00
53270;BME280;39159;45.634;9.420;2023-02-25T04:01:56;97579.66;;;7.91;100.00
53270;BME280;39159;45.634;9.420;2023-02-25T04:04:23;97581.44;;;7.87;100.00
53270;BME280;39159;45.634;9.420;2023-02-25T04:06:48;97571.06;;;7.80;100.00
53270;BME280;39159;45.634;9.420;2023-02-25T04:09:14;97568.84;;;7.74;100.00
53270;BME280;39159;45.634;9.420;2023-02-25T04:11:39;97567.06;;;7.69;100.00
53270;BME280;39159;45.634;9.420;2023-02-25T04:14:04;97562.13;;;7.62;100.00
53270;BME280;39159;45.634;9.420;2023-02-25T04:16:30;97568.69;;;7.61;100.00
53270;BME280;39159;45.634;9.420;2023-02-25T04:18:55;97574.59;;;7.63;100.00
53270;BME280;39159;45.634;9.420;2023-02-25T04:21:31;97579.72;;;7.65;100.00
53270;BME280;39159;45.634;9.420;2023-02-25T04:23:56;97585.47;;;7.72;100.00
53270;BME280;39159;45.634;9.420;2023-02-25T04:26:22;97581.59;;;7.82;100.00
53270;BME280;39159;45.634;9.420;2023-02-25T04:28:48;97586.88;;;7.87;100.00
53270;BME280;39159;45.634;9.420;2023-02-25T04:31:13;97588.75;;;7.86;100.00
53270;BME280;39159;45.634;9.420;2023-02-25T04:33:39;97579.81;;;7.86;100.00
53270;BME280;39159;45.634;9.420;2023-02-25T04:36:04;97582.38;;;7.82;100.00
53270;BME280;39159;45.634;9.420;2023-02-25T04:38:30;97578.41;;;7.80;100.00
53270;BME280;39159;45.634;9.420;2023-02-25T04:40:55;97574.72;;;7.76;100.00
53270;BME280;39159;45.634;9.420;2023-02-25T04:43:21;97572.19;;;7.71;100.00
53270;BME280;39159;45.634;9.420;2023-02-25T04:45:46;97573.31;;;7.70;100.00
53270;BME280;39159;45.634;9.420;2023-02-25T04:48:12;97578.09;;;7.73;100.00
53270;BME280;39159;45.634;9.420;2023-02-25T04:50:37;97583.06;;;7.71;100.00
53270;BME280;39159;45.634;9.420;2023-02-25T04:53:03;97573.47;;;7.64;100.00
53270;BME280;39159;45.634;9.420;2023-02-25T04:55:28;97575.41;;;7.64;100.00
53270;BME280;39159;45.634;9.420;2023-02-25T04:57:54;97573.16;;;7.66;100.00
53270;BME280;39159;45.634;9.420;2023-02-25T05:00:21;97571.72;;;7.68;100.00
53270;BME280;39159;45.634;9.420;2023-02-25T05:02:55;97586.72;;;7.75;100.00
53270;BME280;39159;45.634;9.420;2023-02-25T05:05:20;97577.28;;;7.81;100.00
53270;BME280;39159;45.634;9.420;2023-02-25T05:07:46;97580.50;;;7.83;100.00
53270;BME280;39159;45.634;9.420;2023-02-25T05:10:12;97576.81;;;7.87;100.00
53270;BME280;39159;45.634;9.420;2023-02-25T05:12:39;97578.19;;;7.94;100.00
53270;BME280;39159;45.634;9.420;2023-02-25T05:15:05;97575.63;;;7.97;100.00
53270;BME280;39159;45.634;9.420;2023-02-25T05:17:32;97561.88;;;8.02;100.00
53270;BME280;39159;45.634;9.420;2023-02-25T05:19:58;97560.75;;;8.03;100.00
53270;BME280;39159;45.634;9.420;2023-02-25T05:22:25;97561.91;;;7.94;100.00
53270;BME280;39159;45.634;9.420;2023-02-25T05:24:50;97554.72;;;7.89;100.00
53270;BME280;39159;45.634;9.420;2023-02-25T05:27:16;97561.78;;;7.81;100.00
53270;BME280;39159;45.634;9.420;2023-02-25T05:29:42;97559.88;;;7.82;100.00
53270;BME280;39159;45.634;9.420;2023-02-25T05:32:07;97554.44;;;7.82;100.00
53270;BME280;39159;45.634;9.420;2023-02-25T05:34:33;97548.38;;;7.85;100.00
53270;BME280;39159;45.634;9.420;2023-02-25T05:36:59;97552.34;;;7.87;100.00
53270;BME280;39159;45.634;9.420;2023-02-25T05:39:25;97553.63;;;7.90;100.00
53270;BME280;39159;45.634;9.420;2023-02-25T05:41:50;97545.00;;;7.88;100.00
53270;BME280;39159;45.634;9.420;2023-02-25T05:44:16;97548.03;;;7.86;100.00
53270;BME280;39159;45.634;9.420;2023-02-25T05:46:42;97543.41;;;7.87;100.00
53270;BME280;39159;45.634;9.420;2023-02-25T05:49:08;97550.91;;;7.90;100.00
53270;BME280;39159;45.634;9.420;2023-02-25T05:51:34;97538.13;;;7.91;100.00
53270;BME280;39159;45.634;9.420;2023-02-25T05:53:59;97555.53;;;7.89;100.00
53270;BME280;39159;45.634;9.420;2023-02-25T05:56:24;97552.00;;;7.89;100.00
53270;BME280;39159;45.634;9.420;2023-02-25T05:58:52;97541.47;;;7.87;100.00
53270;BME280;39159;45.634;9.420;2023-02-25T06:01:23;97544.53;;;7.86;100.00
53270;BME280;39159;45.634;9.420;2023-02-25T06:03:50;97542.47;;;7.83;100.00
53270;BME280;39159;45.634;9.420;2023-02-25T06:06:22;97531.91;;;7.81;100.00
53270;BME280;39159;45.634;9.420;2023-02-25T06:08:49;97539.28;;;7.81;100.00
53270;BME280;39159;45.634;9.420;2023-02-25T06:11:23;97534.16;;;7.79;100.00
53270;BME280;39159;45.634;9.420;2023-02-25T06:13:51;97539.91;;;7.78;100.00
53270;BME280;39159;45.634;9.420;2023-02-25T06:16:17;97533.56;;;7.65;100.00
53270;BME280;39159;45.634;9.420;2023-02-25T06:18:44;97536.78;;;7.50;100.00
53270;BME280;39159;45.634;9.420;2023-02-25T06:21:11;97526.91;;;7.45;100.00
53270;BME280;39159;45.634;9.420;2023-02-25T06:23:39;97527.53;;;7.42;100.00
53270;BME280;39159;45.634;9.420;2023-02-25T06:26:05;97534.09;;;7.41;100.00
53270;BME280;39159;45.634;9.420;2023-02-25T06:28:32;97535.19;;;7.40;100.00
53270;BME280;39159;45.634;9.420;2023-02-25T06:30:58;97537.28;;;7.43;100.00
53270;BME280;39159;45.634;9.420;2023-02-25T06:33:24;97528.00;;;7.44;100.00
53270;BME280;39159;45.634;9.420;2023-02-25T06:35:53;97535.03;;;7.45;100.00
53270;BME280;39159;45.634;9.420;2023-02-25T06:38:19;97539.81;;;7.48;100.00
53270;BME280;39159;45.634;9.420;2023-02-25T06:40:46;97536.94;;;7.53;100.00
53270;BME280;39159;45.634;9.420;2023-02-25T06:43:12;97533.09;;;7.63;100.00
53270;BME280;39159;45.634;9.420;2023-02-25T06:45:37;97537.56;;;7.67;100.00
53270;BME280;39159;45.634;9.420;2023-02-25T06:48:03;97526.28;;;7.86;100.00
53270;BME280;39159;45.634;9.420;2023-02-25T06:50:29;97529.66;;;7.92;100.00
53270;BME280;39159;45.634;9.420;2023-02-25T06:52:56;97524.47;;;8.08;100.00
53270;BME280;39159;45.634;9.420;2023-02-25T06:55:22;97521.91;;;8.12;100.00
53270;BME280;39159;45.634;9.420;2023-02-25T06:57:47;97523.00;;;8.10;100.00
53270;BME280;39159;45.634;9.420;2023-02-25T07:00:13;97523.69;;;8.07;100.00
53270;BME280;39159;45.634;9.420;2023-02-25T07:02:39;97528.44;;;8.10;100.00
53270;BME280;39159;45.634;9.420;2023-02-25T07:05:04;97531.78;;;8.16;100.00
53270;BME280;39159;45.634;9.420;2023-02-25T07:07:30;97532.25;;;8.18;100.00
53270;BME280;39159;45.634;9.420;2023-02-25T07:09:55;97533.53;;;8.21;100.00
53270;BME280;39159;45.634;9.420;2023-02-25T07:12:21;97523.91;;;8.23;100.00
53270;BME280;39159;45.634;9.420;2023-02-25T07:14:46;97533.34;;;8.26;100.00
53270;BME280;39159;45.634;9.420;2023-02-25T07:17:12;97531.09;;;8.28;100.00
53270;BME280;39159;45.634;9.420;2023-02-25T07:19:37;97528.53;;;8.32;100.00
53270;BME280;39159;45.634;9.420;2023-02-25T07:22:03;97513.72;;;8.50;100.00
53270;BME280;39159;45.634;9.420;2023-02-25T07:24:30;97510.97;;;8.80;100.00
53270;BME280;39159;45.634;9.420;2023-02-25T07:26:55;97512.16;;;9.12;100.00
53270;BME280;39159;45.634;9.420;2023-02-25T07:29:21;97507.38;;;9.42;100.00
53270;BME280;39159;45.634;9.420;2023-02-25T07:31:47;97508.72;;;9.69;100.00
53270;BME280;39159;45.634;9.420;2023-02-25T07:34:12;97506.22;;;9.89;100.00
53270;BME280;39159;45.634;9.420;2023-02-25T07:36:38;97509.44;;;10.03;100.00
53270;BME280;39159;45.634;9.420;2023-02-25T07:39:06;97502.97;;;10.20;100.00
53270;BME280;39159;45.634;9.420;2023-02-25T07:41:32;97500.16;;;10.41;100.00
53270;BME280;39159;45.634;9.420;2023-02-25T07:43:58;97496.16;;;10.51;100.00
53270;BME280;39159;45.634;9.420;2023-02-25T07:46:24;97487.72;;;10.68;100.00
53270;BME280;39159;45.634;9.420;2023-02-25T07:48:50;97483.50;;;10.83;100.00
53270;BME280;39159;45.634;9.420;2023-02-25T07:51:18;97487.06;;;10.99;100.00
53270;BME280;39159;45.634;9.420;2023-02-25T07:53:44;97480.91;;;11.03;100.00
53270;BME280;39159;45.634;9.420;2023-02-25T07:56:11;97479.91;;;11.07;100.00
53270;BME280;39159;45.634;9.420;2023-02-25T07:58:37;97474.03;;;11.21;100.00
53270;BME280;39159;45.634;9.420;2023-02-25T08:01:22;97471.63;;;11.48;100.00
53270;BME280;39159;45.634;9.420;2023-02-25T08:03:51;97467.59;;;11.73;100.00
53270;BME280;39159;45.634;9.420;2023-02-25T08:06:17;97465.47;;;11.82;100.00
53270;BME280;39159;45.634;9.420;2023-02-25T08:08:43;97465.41;;;11.79;100.00
53270;BME280;39159;45.634;9.420;2023-02-25T08:11:11;97457.03;;;12.19;100.00
53270;BME280;39159;45.634;9.420;2023-02-25T08:13:38;97468.34;;;12.53;100.00
53270;BME280;39159;45.634;9.420;2023-02-25T08:16:05;97461.09;;;12.80;100.00
53270;BME280;39159;45.634;9.420;2023-02-25T08:18:31;97460.19;;;13.12;100.00
53270;BME280;39159;45.634;9.420;2023-02-25T08:20:56;97461.84;;;13.36;100.00
53270;BME280;39159;45.634;9.420;2023-02-25T08:23:23;97459.06;;;13.32;100.00
53270;BME280;39159;45.634;9.420;2023-02-25T08:25:53;97453.34;;;13.64;100.00
53270;BME280;39159;45.634;9.420;2023-02-25T08:28:20;97450.31;;;13.69;100.00
53270;BME280;39159;45.634;9.420;2023-02-25T08:30:47;97453.34;;;13.87;100.00
53270;BME280;39159;45.634;9.420;2023-02-25T08:33:12;97440.50;;;13.91;100.00
53270;BME280;39159;45.634;9.420;2023-02-25T08:35:37;97429.13;;;14.16;100.00
53270;BME280;39159;45.634;9.420;2023-02-25T08:38:03;97435.81;;;14.18;100.00
53270;BME280;39159;45.634;9.420;2023-02-25T08:40:29;97429.38;;;14.34;100.00
53270;BME280;39159;45.634;9.420;2023-02-25T08:42:56;97423.47;;;14.31;100.00
53270;BME280;39159;45.634;9.420;2023-02-25T08:45:21;97424.53;;;13.97;100.00
53270;BME280;39159;45.634;9.420;2023-02-25T08:47:47;97417.19;;;14.31;100.00
53270;BME280;39159;45.634;9.420;2023-02-25T08:50:12;97410.31;;;14.44;100.00
53270;BME280;39159;45.634;9.420;2023-02-25T08:52:38;97412.56;;;14.62;100.00
53270;BME280;39159;45.634;9.420;2023-02-25T08:55:04;97414.13;;;14.93;100.00
53270;BME280;39159;45.634;9.420;2023-02-25T08:57:30;97411.16;;;15.05;89.22
53270;BME280;39159;45.634;9.420;2023-02-25T08:59:55;97411.25;;;14.82;93.33
53270;BME280;39159;45.634;9.420;2023-02-25T09:02:21;97404.09;;;14.74;89.36
53270;BME280;39159;45.634;9.420;2023-02-25T09:04:48;97405.72;;;14.79;84.17
53270;BME280;39159;45.634;9.420;2023-02-25T09:07:14;97401.44;;;15.15;84.25
53270;BME280;39159;45.634;9.420;2023-02-25T09:09:40;97406.94;;;15.56;84.83
53270;BME280;39159;45.634;9.420;2023-02-25T09:12:06;97398.47;;;15.72;78.13
53270;BME280;39159;45.634;9.420;2023-02-25T09:14:31;97393.84;;;15.83;75.09
53270;BME280;39159;45.634;9.420;2023-02-25T09:17:01;97392.41;;;16.00;74.90
53270;BME280;39159;45.634;9.420;2023-02-25T09:19:26;97388.88;;;16.00;77.36
53270;BME280;39159;45.634;9.420;2023-02-25T09:21:52;97392.72;;;15.88;72.59
53270;BME280;39159;45.634;9.420;2023-02-25T09:24:17;97376.63;;;15.93;74.21
53270;BME280;39159;45.634;9.420;2023-02-25T09:26:43;97381.09;;;16.16;73.10
53270;BME280;39159;45.634;9.420;2023-02-25T09:29:08;97382.03;;;16.34;70.94
53270;BME280;39159;45.634;9.420;2023-02-25T09:31:35;97373.84;;;16.52;70.92
53270;BME280;39159;45.634;9.420;2023-02-25T09:34:02;97371.16;;;16.67;73.11
53270;BME280;39159;45.634;9.420;2023-02-25T09:36:29;97368.94;;;16.90;71.17
53270;BME280;39159;45.634;9.420;2023-02-25T09:38:56;97365.03;;;17.06;69.71
53270;BME280;39159;45.634;9.420;2023-02-25T09:44:33;97358.81;;;16.32;69.56
53270;BME280;39159;45.634;9.420;2023-02-25T09:52:22;97360.47;;;15.44;71.97
53270;BME280;39159;45.634;9.420;2023-02-25T09:55:23;97346.09;;;15.17;71.09
53270;BME280;39159;45.634;9.420;2023-02-25T10:00:27;97354.22;;;15.06;72.20
53270;BME280;39159;45.634;9.420;2023-02-25T10:03:09;97346.09;;;15.17;72.21
53270;BME280;39159;45.634;9.420;2023-02-25T10:06:01;97353.66;;;15.27;72.03
53270;BME280;39159;45.634;9.420;2023-02-25T10:08:37;97354.78;;;15.22;71.98
53270;BME280;39159;45.634;9.420;2023-02-25T10:11:20;97355.09;;;15.13;70.74
53270;BME280;39159;45.634;9.420;2023-02-25T10:27:40;97356.22;;;15.09;73.06
53270;BME280;39159;45.634;9.420;2023-02-25T10:32:38;97339.47;;;15.21;71.43
53270;BME280;39159;45.634;9.420;2023-02-25T10:35:20;97341.56;;;14.94;70.61
53270;BME280;39159;45.634;9.420;2023-02-25T10:37:48;97349.41;;;14.96;71.85
53270;BME280;39159;45.634;9.420;2023-02-25T10:40:20;97331.59;;;15.20;70.22
53270;BME280;39159;45.634;9.420;2023-02-25T10:42:49;97331.94;;;15.15;70.54
53270;BME280;39159;45.634;9.420;2023-02-25T10:45:26;97331.03;;;15.41;70.38
53270;BME280;39159;45.634;9.420;2023-02-25T10:48:06;97326.44;;;15.59;68.27
53270;BME280;39159;45.634;9.420;2023-02-25T10:50:36;97326.72;;;15.02;69.35
53270;BME280;39159;45.634;9.420;2023-02-25T10:53:16;97319.22;;;15.40;70.04
53270;BME280;39159;45.634;9.420;2023-02-25T10:58:37;97314.31;;;15.64;69.58
53270;BME280;39159;45.634;9.420;2023-02-25T11:01:18;97318.28;;;15.70;69.42
53270;BME280;39159;45.634;9.420;2023-02-25T11:03:57;97310.56;;;15.86;69.48
53270;BME280;39159;45.634;9.420;2023-02-25T11:06:31;97312.38;;;15.68;71.63
53270;BME280;39159;45.634;9.420;2023-02-25T11:09:02;97310.78;;;15.67;72.23
53270;BME280;39159;45.634;9.420;2023-02-25T11:11:29;97307.03;;;15.86;71.63
53270;BME280;39159;45.634;9.420;2023-02-25T11:14:13;97305.66;;;15.62;73.38
53270;BME280;39159;45.634;9.420;2023-02-25T11:16:40;97308.44;;;15.69;73.61
53270;BME280;39159;45.634;9.420;2023-02-25T11:19:26;97297.69;;;16.01;71.78
53270;BME280;39159;45.634;9.420;2023-02-25T11:21:53;97301.81;;;15.73;72.88
53270;BME280;39159;45.634;9.420;2023-02-25T11:24:40;97300.66;;;15.74;72.31
53270;BME280;39159;45.634;9.420;2023-02-25T11:27:23;97297.72;;;15.53;71.78
53270;BME280;39159;45.634;9.420;2023-02-25T11:29:50;97287.81;;;15.41;72.05
53270;BME280;39159;45.634;9.420;2023-02-25T11:32:17;97296.22;;;15.15;71.73
53270;BME280;39159;45.634;9.420;2023-02-25T11:34:54;97288.34;;;15.13;72.57
53270;BME280;39159;45.634;9.420;2023-02-25T11:37:42;97289.78;;;15.41;71.41
53270;BME280;39159;45.634;9.420;2023-02-25T11:40:29;97277.31;;;15.58;70.99
53270;BME280;39159;45.634;9.420;2023-02-25T11:48:21;97260.00;;;16.16;69.72
53270;BME280;39159;45.634;9.420;2023-02-25T11:56:43;97258.72;;;15.92;65.21
53270;BME280;39159;45.634;9.420;2023-02-25T12:46:08;97198.88;;;15.71;67.46
53270;BME280;39159;45.634;9.420;2023-02-25T12:54:03;97203.47;;;15.52;69.82
53270;BME280;39159;45.634;9.420;2023-02-25T12:59:30;97179.78;;;16.07;69.27
53270;BME280;39159;45.634;9.420;2023-02-25T13:02:03;97177.03;;;16.07;65.25
53270;BME280;39159;45.634;9.420;2023-02-25T13:07:47;97165.31;;;16.31;63.54
53270;BME280;39159;45.634;9.420;2023-02-25T13:32:18;97125.44;;;15.82;59.78
53270;BME280;39159;45.634;9.420;2023-02-25T13:35:03;97131.34;;;15.77;60.50
53270;BME280;39159;45.634;9.420;2023-02-25T13:37:37;97118.28;;;15.67;61.30
53270;BME280;39159;45.634;9.420;2023-02-25T13:40:32;97116.03;;;15.83;63.02
53270;BME280;39159;45.634;9.420;2023-02-25T13:46:27;97111.69;;;15.75;62.06
53270;BME280;39159;45.634;9.420;2023-02-25T13:51:33;97110.78;;;15.57;64.62
53270;BME280;39159;45.634;9.420;2023-02-25T13:56:55;97101.13;;;15.95;63.97
53270;BME280;39159;45.634;9.420;2023-02-25T13:59:33;97103.53;;;16.18;62.34
53270;BME280;39159;45.634;9.420;2023-02-25T14:05:07;97102.72;;;16.07;60.85
53270;BME280;39159;45.634;9.420;2023-02-25T14:07:45;97097.28;;;16.28;61.70
53270;BME280;39159;45.634;9.420;2023-02-25T14:26:58;97076.00;;;16.11;64.13
53270;BME280;39159;45.634;9.420;2023-02-25T14:37:55;97073.88;;;15.54;65.71
53270;BME280;39159;45.634;9.420;2023-02-25T14:43:36;97064.41;;;15.48;64.77
53270;BME280;39159;45.634;9.420;2023-02-25T14:48:49;97045.94;;;15.41;64.45
53270;BME280;39159;45.634;9.420;2023-02-25T15:06:21;97049.00;;;15.29;66.81
53270;BME280;39159;45.634;9.420;2023-02-25T15:09:30;97046.50;;;15.02;67.78
53270;BME280;39159;45.634;9.420;2023-02-25T15:12:25;97055.00;;;14.83;68.77
53270;BME280;39159;45.634;9.420;2023-02-25T15:18:06;97066.53;;;14.51;71.99
53270;BME280;39159;45.634;9.420;2023-02-25T15:20:41;97069.16;;;14.37;73.10
53270;BME280;39159;45.634;9.420;2023-02-25T15:23:16;97073.41;;;14.30;74.19
53270;BME280;39159;45.634;9.420;2023-02-25T15:33:37;97067.00;;;14.16;75.09
53270;BME280;39159;45.634;9.420;2023-02-25T15:36:38;97062.72;;;14.18;75.29
53270;BME280;39159;45.634;9.420;2023-02-25T15:39:06;97063.09;;;14.17;76.44
53270;BME280;39159;45.634;9.420;2023-02-25T15:46:42;97063.75;;;14.03;76.78
53270;BME280;39159;45.634;9.420;2023-02-25T15:51:50;97072.72;;;14.00;77.82
53270;BME280;39159;45.634;9.420;2023-02-25T16:05:18;97066.50;;;13.65;80.43
53270;BME280;39159;45.634;9.420;2023-02-25T16:07:46;97067.63;;;13.61;81.28
53270;BME280;39159;45.634;9.420;2023-02-25T16:12:41;97085.13;;;13.53;82.54
53270;BME280;39159;45.634;9.420;2023-02-25T16:15:38;97089.06;;;13.55;84.13
53270;BME280;39159;45.634;9.420;2023-02-25T16:18:32;97093.00;;;13.54;85.31
53270;BME280;39159;45.634;9.420;2023-02-25T16:21:02;97099.16;;;13.47;86.19
53270;BME280;39159;45.634;9.420;2023-02-25T16:23:31;97101.00;;;13.36;86.83
53270;BME280;39159;45.634;9.420;2023-02-25T16:31:56;97097.44;;;13.09;91.30
53270;BME280;39159;45.634;9.420;2023-02-25T16:34:52;97087.91;;;12.99;92.72
53270;BME280;39159;45.634;9.420;2023-02-25T16:37:28;97089.38;;;12.93;93.73
53270;BME280;39159;45.634;9.420;2023-02-25T16:39:56;97084.56;;;12.83;94.50
53270;BME280;39159;45.634;9.420;2023-02-25T16:42:22;97094.25;;;12.77;95.09
53270;BME280;39159;45.634;9.420;2023-02-25T16:44:57;97090.56;;;12.65;96.40
53270;BME280;39159;45.634;9.420;2023-02-25T16:47:29;97098.34;;;12.63;96.32
53270;BME280;39159;45.634;9.420;2023-02-25T16:49:57;97102.09;;;12.55;97.27
53270;BME280;39159;45.634;9.420;2023-02-25T16:52:36;97098.94;;;12.53;97.47
53270;BME280;39159;45.634;9.420;2023-02-25T16:55:04;97107.53;;;12.52;98.26
53270;BME280;39159;45.634;9.420;2023-02-25T16:57:33;97109.03;;;12.49;98.12
53270;BME280;39159;45.634;9.420;2023-02-25T17:02:49;97114.19;;;12.31;99.36
53270;BME280;39159;45.634;9.420;2023-02-25T17:05:33;97109.78;;;12.23;99.70
53270;BME280;39159;45.634;9.420;2023-02-25T17:08:04;97112.44;;;12.19;100.00
53270;BME280;39159;45.634;9.420;2023-02-25T17:10:51;97109.16;;;12.10;100.00
53270;BME280;39159;45.634;9.420;2023-02-25T17:13:33;97108.94;;;11.99;100.00
53270;BME280;39159;45.634;9.420;2023-02-25T17:16:00;97112.34;;;11.93;100.00
53270;BME280;39159;45.634;9.420;2023-02-25T17:18:32;97107.41;;;11.82;100.00